createdAt,value
2017-04-28T00:01:56.283Z,8.14
2017-04-28T00:04:25.362Z,7.80
2017-04-28T00:06:54.420Z,7.62
2017-04-28T00:09:23.518Z,7.76
2017-04-28T00:11:52.559Z,9.02
2017-04-28T00:14:21.763Z,8.14
2017-04-28T00:16:50.831Z,10.20
2017-04-28T00:19:19.896Z,8.96
2017-04-28T00:21:48.978Z,9.34
2017-04-28T00:24:18.051Z,10.40
2017-04-28T00:26:47.147Z,9.66
2017-04-28T00:29:16.956Z,9.62
2017-04-28T00:31:47.112Z,11.24
2017-04-28T00:34:16.175Z,11.10
2017-04-28T00:36:45.977Z,9.12
2017-04-28T00:39:15.803Z,9.12
2017-04-28T00:41:45.010Z,9.28
2017-04-28T00:44:14.099Z,8.70
2017-04-28T00:46:43.155Z,9.14
2017-04-28T00:49:12.649Z,8.54
2017-04-28T00:51:41.707Z,8.64
2017-04-28T00:54:10.766Z,10.28
2017-04-28T00:56:39.975Z,9.58
2017-04-28T00:59:09.766Z,10.14
2017-04-28T01:01:38.826Z,9.54
2017-04-28T01:04:08.047Z,10.20
2017-04-28T01:06:37.118Z,9.90
2017-04-28T01:09:06.183Z,8.88
2017-04-28T01:11:35.271Z,10.56
2017-04-28T01:14:04.328Z,9.52
2017-04-28T01:16:33.539Z,8.76
2017-04-28T01:19:03.355Z,8.60
2017-04-28T01:21:32.408Z,10.36
2017-04-28T01:24:01.607Z,9.62
2017-04-28T01:26:30.691Z,8.56
2017-04-28T01:28:59.754Z,8.08
2017-04-28T01:31:28.974Z,8.18
2017-04-28T01:33:58.042Z,9.38
2017-04-28T01:36:27.594Z,9.02
2017-04-28T01:38:56.643Z,8.88
2017-04-28T01:41:25.712Z,9.52
2017-04-28T01:43:54.795Z,8.50
2017-04-28T01:46:23.864Z,8.50
2017-04-28T01:48:52.967Z,9.84
2017-04-28T01:51:22.219Z,10.64
2017-04-28T01:53:51.728Z,9.12
2017-04-28T01:56:21.510Z,8.10
2017-04-28T01:58:50.550Z,8.98
2017-04-28T02:01:19.633Z,8.90
2017-04-28T02:03:48.691Z,8.62
2017-04-28T02:06:18.022Z,9.42
2017-04-28T02:08:47.110Z,10.48
2017-04-28T02:11:16.166Z,9.44
2017-04-28T02:13:45.259Z,8.86
2017-04-28T02:16:14.315Z,10.14
2017-04-28T02:18:43.599Z,10.42
2017-04-28T02:21:12.770Z,10.68
2017-04-28T02:23:42.600Z,10.56
2017-04-28T02:26:12.830Z,8.42
2017-04-28T02:28:41.894Z,9.32
2017-04-28T02:31:11.696Z,9.42
2017-04-28T02:33:40.927Z,9.00
2017-04-28T02:36:09.992Z,9.34
2017-04-28T02:38:39.059Z,9.88
2017-04-28T02:41:08.151Z,11.36
2017-04-28T02:43:37.208Z,10.06
2017-04-28T02:46:06.502Z,9.28
2017-04-28T02:48:35.559Z,8.86
2017-04-28T02:51:05.391Z,9.14
2017-04-28T02:53:35.216Z,8.82
2017-04-28T02:56:05.007Z,9.80
2017-04-28T02:58:34.955Z,8.70
2017-04-28T03:01:04.022Z,9.40
2017-04-28T03:03:33.818Z,9.14
2017-04-28T03:06:03.040Z,9.54
2017-04-28T03:08:32.863Z,10.68
2017-04-28T03:11:02.675Z,9.08
2017-04-28T03:13:31.763Z,10.80
2017-04-28T03:16:01.595Z,9.42
2017-04-28T03:18:30.968Z,9.90
2017-04-28T03:21:00.406Z,9.10
2017-04-28T03:23:29.458Z,9.44
2017-04-28T03:25:59.279Z,9.78
2017-04-28T03:28:29.087Z,10.88
2017-04-28T03:30:58.317Z,9.52
2017-04-28T03:33:27.375Z,9.08
2017-04-28T03:35:57.167Z,9.10
2017-04-28T03:38:26.254Z,8.44
2017-04-28T03:40:55.326Z,8.40
2017-04-28T03:43:24.530Z,9.86
2017-04-28T03:45:53.619Z,8.94
2017-04-28T03:48:22.688Z,8.02
2017-04-28T03:50:52.041Z,8.98
2017-04-28T03:53:21.087Z,9.30
2017-04-28T03:55:50.147Z,9.46
2017-04-28T03:58:20.179Z,7.94
2017-04-28T04:00:49.239Z,8.06
2017-04-28T04:03:19.100Z,8.44
2017-04-28T04:05:48.395Z,8.86
2017-04-28T04:08:17.461Z,10.20
2017-04-28T04:10:47.259Z,9.12
2017-04-28T04:13:16.351Z,9.80
2017-04-28T04:15:45.415Z,10.90
2017-04-28T04:18:14.680Z,9.66
2017-04-28T04:20:43.744Z,9.84
2017-04-28T04:23:12.818Z,9.00
2017-04-28T04:25:41.861Z,9.18
2017-04-28T04:28:10.942Z,9.60
2017-04-28T04:30:40.186Z,9.60
2017-04-28T04:33:09.233Z,8.94
2017-04-28T04:35:38.286Z,8.22
2017-04-28T04:38:07.745Z,8.50
2017-04-28T04:40:36.807Z,9.62
2017-04-28T04:43:05.859Z,9.20
2017-04-28T04:45:34.931Z,9.46
2017-04-28T04:48:04.027Z,10.62
2017-04-28T04:50:33.330Z,9.22
2017-04-28T04:53:02.398Z,9.76
2017-04-28T04:55:31.462Z,10.44
2017-04-28T04:58:00.915Z,9.14
2017-04-28T05:00:29.978Z,9.70
2017-04-28T05:02:59.035Z,9.50
2017-04-28T05:05:28.287Z,11.06
2017-04-28T05:07:57.366Z,9.98
2017-04-28T05:10:26.419Z,8.96
2017-04-28T05:12:55.686Z,9.32
2017-04-28T05:15:24.766Z,10.22
2017-04-28T05:17:53.835Z,9.66
2017-04-28T05:20:22.912Z,9.02
2017-04-28T05:22:51.986Z,9.34
2017-04-28T05:25:21.067Z,9.00
2017-04-28T05:27:50.150Z,10.76
2017-04-28T05:30:19.239Z,9.00
2017-04-28T05:32:49.049Z,9.26
2017-04-28T05:35:18.127Z,10.24
2017-04-28T05:37:47.255Z,12.64
2017-04-28T05:40:16.339Z,11.92
2017-04-28T05:42:45.554Z,13.44
2017-04-28T05:45:14.647Z,12.16
2017-04-28T05:47:43.720Z,11.12
2017-04-28T05:50:12.835Z,13.88
2017-04-28T05:52:41.908Z,12.94
2017-04-28T05:55:10.988Z,10.64
2017-04-28T05:57:40.807Z,12.62
2017-04-28T06:00:10.777Z,12.66
2017-04-28T06:02:39.847Z,11.10
2017-04-28T06:05:08.927Z,10.38
2017-04-28T06:07:38.085Z,10.10
2017-04-28T06:10:07.143Z,10.86
2017-04-28T06:12:36.387Z,9.06
2017-04-28T06:15:05.471Z,11.28
2017-04-28T06:17:35.299Z,10.30
2017-04-28T06:20:04.379Z,10.62
2017-04-28T06:22:33.447Z,9.12
2017-04-28T06:25:02.669Z,8.88
2017-04-28T06:27:31.767Z,9.42
2017-04-28T06:30:00.827Z,9.18
2017-04-28T06:32:29.926Z,8.46
2017-04-28T06:34:59.012Z,8.50
2017-04-28T06:37:28.264Z,9.00
2017-04-28T06:39:57.415Z,9.60
2017-04-28T06:42:26.504Z,7.72
2017-04-28T06:44:55.808Z,7.50
2017-04-28T06:47:24.879Z,7.78
2017-04-28T06:49:54.232Z,7.86
2017-04-28T06:52:23.287Z,7.60
2017-04-28T06:54:52.371Z,7.10
2017-04-28T06:57:21.789Z,8.44
2017-04-28T06:59:50.839Z,9.34
2017-04-28T07:02:19.956Z,9.52
2017-04-28T07:04:49.043Z,8.28
2017-04-28T07:07:18.555Z,9.26
2017-04-28T07:09:47.744Z,9.18
2017-04-28T07:12:16.808Z,8.38
2017-04-28T07:14:45.868Z,8.92
2017-04-28T07:17:14.931Z,10.68
2017-04-28T07:19:44.179Z,10.92
2017-04-28T07:22:13.244Z,9.84
2017-04-28T07:24:42.318Z,10.90
2017-04-28T07:27:11.394Z,11.82
2017-04-28T07:29:41.199Z,12.00
2017-04-28T07:32:11.239Z,8.72
2017-04-28T07:34:40.301Z,9.78
2017-04-28T07:37:09.367Z,9.32
2017-04-28T07:39:38.439Z,8.80
2017-04-28T07:42:07.504Z,9.40
2017-04-28T07:44:36.587Z,9.24
2017-04-28T07:47:06.422Z,9.76
2017-04-28T07:49:35.830Z,9.62
2017-04-28T07:52:04.935Z,11.16
2017-04-28T07:54:34.010Z,10.82
2017-04-28T07:57:03.119Z,10.40
2017-04-28T07:59:32.210Z,9.54
2017-04-28T08:02:01.432Z,10.20
2017-04-28T08:04:30.539Z,10.46
2017-04-28T08:06:59.641Z,10.18
2017-04-28T08:09:28.762Z,9.24
2017-04-28T08:11:58.584Z,10.14
2017-04-28T08:14:28.467Z,10.40
2017-04-28T08:16:57.543Z,9.56
2017-04-28T08:19:26.770Z,10.14
2017-04-28T08:21:55.883Z,9.56
2017-04-28T08:24:24.971Z,12.54
2017-04-28T08:26:54.083Z,9.78
2017-04-28T08:29:23.188Z,10.38
2017-04-28T08:31:52.495Z,9.44
2017-04-28T08:34:21.562Z,12.42
2017-04-28T08:36:51.380Z,8.76
2017-04-28T08:39:20.498Z,8.54
2017-04-28T08:41:49.552Z,9.12
2017-04-28T08:44:18.671Z,10.00
2017-04-28T08:46:47.769Z,9.32
2017-04-28T08:49:17.081Z,10.62
2017-04-28T08:51:46.151Z,9.06
2017-04-28T08:54:15.222Z,9.90
2017-04-28T08:56:44.311Z,9.88
2017-04-28T08:59:14.228Z,9.94
2017-04-28T09:01:43.442Z,9.52
2017-04-28T09:04:12.554Z,9.40
2017-04-28T09:06:41.640Z,9.74
2017-04-28T09:09:11.477Z,9.94
2017-04-28T09:11:40.546Z,10.82
2017-04-28T09:14:09.655Z,8.84
2017-04-28T09:16:38.755Z,12.78
2017-04-28T09:19:08.016Z,12.12
2017-04-28T09:21:37.118Z,11.36
2017-04-28T09:24:06.191Z,12.27
2017-04-28T09:26:35.299Z,12.75
2017-04-28T09:29:05.114Z,11.86
2017-04-28T09:31:34.995Z,10.97
2017-04-28T09:34:04.063Z,11.64
2017-04-28T09:36:33.475Z,12.24
2017-04-28T09:39:02.739Z,10.92
2017-04-28T09:41:32.629Z,12.42
2017-04-28T09:44:02.500Z,13.66
2017-04-28T09:46:31.575Z,14.24
2017-04-28T09:49:00.872Z,11.98
2017-04-28T09:51:29.969Z,11.54
2017-04-28T09:53:59.044Z,13.34
2017-04-28T09:56:28.179Z,12.82
2017-04-28T09:58:57.273Z,12.96
2017-04-28T10:01:26.385Z,13.38
2017-04-28T10:03:55.687Z,14.46
2017-04-28T10:06:24.916Z,12.34
2017-04-28T10:08:54.729Z,13.12
2017-04-28T10:11:23.815Z,12.80
2017-04-28T10:13:53.667Z,12.40
2017-04-28T10:16:22.735Z,13.44
2017-04-28T10:18:51.869Z,13.72
2017-04-28T10:21:20.938Z,14.04
2017-04-28T10:23:50.379Z,15.26
2017-04-28T10:26:19.445Z,14.84
2017-04-28T10:28:48.511Z,14.38
2017-04-28T10:31:18.345Z,13.46
2017-04-28T10:33:47.430Z,16.94
2017-04-28T10:36:16.838Z,15.38
2017-04-28T10:38:45.906Z,15.74
2017-04-28T10:41:15.003Z,23.18
2017-04-28T10:43:44.850Z,21.06
2017-04-28T10:46:13.942Z,17.40
2017-04-28T10:48:43.072Z,16.50
2017-04-28T10:51:12.188Z,14.38
2017-04-28T10:53:41.636Z,17.64
2017-04-28T10:56:10.704Z,14.88
2017-04-28T10:58:39.793Z,17.14
2017-04-28T11:01:08.922Z,15.76
2017-04-28T11:03:38.023Z,13.32
2017-04-28T11:06:07.127Z,14.54
2017-04-28T11:08:36.448Z,14.24
2017-04-28T11:11:05.831Z,12.68
2017-04-28T11:13:34.892Z,14.00
2017-04-28T11:16:03.954Z,14.14
2017-04-28T11:18:33.054Z,15.18
2017-04-28T11:21:02.127Z,16.08
2017-04-28T11:23:31.245Z,15.68
2017-04-28T11:26:00.345Z,15.86
2017-04-28T11:28:29.577Z,16.32
2017-04-28T11:30:58.652Z,16.18
2017-04-28T11:33:27.723Z,14.32
2017-04-28T11:35:57.603Z,13.46
2017-04-28T11:38:26.679Z,14.64
2017-04-28T11:40:55.903Z,15.60
2017-04-28T11:43:24.990Z,14.30
2017-04-28T11:45:54.063Z,15.00
2017-04-28T11:48:23.192Z,15.64
2017-04-28T11:50:52.269Z,14.34
2017-04-28T11:53:21.556Z,14.78
2017-04-28T11:55:50.656Z,14.08
2017-04-28T11:58:19.744Z,13.84
2017-04-28T12:00:48.848Z,13.90
2017-04-28T12:03:17.927Z,12.86
2017-04-28T12:05:47.242Z,16.42
2017-04-28T12:08:16.326Z,13.18
2017-04-28T12:10:45.438Z,13.46
2017-04-28T12:13:14.547Z,14.10
2017-04-28T12:15:43.648Z,14.22
2017-04-28T12:18:13.135Z,13.52
2017-04-28T12:20:42.920Z,14.22
2017-04-28T12:23:12.018Z,14.06
2017-04-28T12:25:41.104Z,13.84
2017-04-28T12:28:10.196Z,14.36
2017-04-28T12:30:39.704Z,14.84
2017-04-28T12:33:08.804Z,12.60
2017-04-28T12:35:37.887Z,14.04
2017-04-28T12:38:07.015Z,11.54
2017-04-28T12:40:36.109Z,14.16
2017-04-28T12:43:05.207Z,13.20
2017-04-28T12:45:34.287Z,14.76
2017-04-28T12:48:03.575Z,13.54
2017-04-28T12:50:32.662Z,13.58
2017-04-28T12:53:01.739Z,14.12
2017-04-28T12:55:30.834Z,13.04
2017-04-28T12:57:59.903Z,17.32
2017-04-28T13:00:29.132Z,15.04
2017-04-28T13:02:58.231Z,12.08
2017-04-28T13:05:28.035Z,14.30
2017-04-28T13:07:57.164Z,14.82
2017-04-28T13:10:26.234Z,14.76
2017-04-28T13:12:56.067Z,14.60
2017-04-28T13:15:25.141Z,14.38
2017-04-28T13:17:54.963Z,13.00
2017-04-28T13:20:24.051Z,15.06
2017-04-28T13:22:53.145Z,13.38
2017-04-28T13:25:22.375Z,13.46
2017-04-28T13:27:51.447Z,12.44
2017-04-28T13:30:20.548Z,14.44
2017-04-28T13:32:49.763Z,12.24
2017-04-28T13:35:18.838Z,13.08
2017-04-28T13:37:48.068Z,12.22
2017-04-28T13:40:17.155Z,13.92
2017-04-28T13:42:46.236Z,14.34
2017-04-28T13:45:15.328Z,15.32
2017-04-28T13:47:44.539Z,15.56
2017-04-28T13:50:13.787Z,14.74
2017-04-28T13:52:43.591Z,12.76
2017-04-28T13:55:12.676Z,15.58
2017-04-28T13:57:41.798Z,14.30
2017-04-28T14:00:10.871Z,13.86
2017-04-28T14:02:40.219Z,11.48
2017-04-28T14:05:09.323Z,12.74
2017-04-28T14:07:38.395Z,11.48
2017-04-28T14:10:07.493Z,11.94
2017-04-28T14:12:36.595Z,11.74
2017-04-28T14:15:05.815Z,14.30
2017-04-28T14:17:35.000Z,13.50
2017-04-28T14:20:04.054Z,15.14
2017-04-28T14:22:33.883Z,15.68
2017-04-28T14:25:02.963Z,14.00
2017-04-28T14:27:32.807Z,14.00
2017-04-28T14:30:01.899Z,15.46
2017-04-28T14:32:31.182Z,15.48
2017-04-28T14:35:00.979Z,15.68
2017-04-28T14:37:30.062Z,14.86
2017-04-28T14:39:59.904Z,15.16
2017-04-28T14:42:28.987Z,14.74
2017-04-28T14:44:58.096Z,14.34
2017-04-28T14:47:27.174Z,12.48
2017-04-28T14:49:57.205Z,13.40
2017-04-28T14:52:26.405Z,13.16
2017-04-28T14:54:56.216Z,14.26
2017-04-28T14:57:25.303Z,13.66
2017-04-28T14:59:54.417Z,14.20
2017-04-28T15:02:23.624Z,13.78
2017-04-28T15:04:52.755Z,13.86
2017-04-28T15:07:21.819Z,13.80
2017-04-28T15:09:50.908Z,14.82
2017-04-28T15:12:19.975Z,13.82
2017-04-28T15:14:49.224Z,14.58
2017-04-28T15:17:18.283Z,13.74
2017-04-28T15:19:47.380Z,14.22
2017-04-28T15:22:16.500Z,15.64
2017-04-28T15:24:45.575Z,15.06
2017-04-28T15:27:15.057Z,17.18
2017-04-28T15:29:44.119Z,17.84
2017-04-28T15:32:13.935Z,13.72
2017-04-28T15:34:43.021Z,16.30
2017-04-28T15:37:12.108Z,17.04
2017-04-28T15:39:41.447Z,23.54
2017-04-28T15:42:10.534Z,19.18
2017-04-28T15:44:40.338Z,16.58
2017-04-28T15:47:09.460Z,19.12
2017-04-28T15:49:38.542Z,16.60
2017-04-28T15:52:08.052Z,16.30
2017-04-28T15:54:37.130Z,19.06
2017-04-28T15:57:06.203Z,17.12
2017-04-28T15:59:36.078Z,21.58
2017-04-28T16:02:05.154Z,22.56
2017-04-28T16:04:34.368Z,15.44
2017-04-28T16:07:03.428Z,16.00
2017-04-28T16:09:32.500Z,16.20
2017-04-28T16:12:01.617Z,16.36
2017-04-28T16:14:30.699Z,16.02
2017-04-28T16:17:00.035Z,16.26
2017-04-28T16:19:29.107Z,17.64
2017-04-28T16:21:58.192Z,14.58
2017-04-28T16:24:28.015Z,16.06
2017-04-28T16:26:57.103Z,19.26
2017-04-28T16:29:26.332Z,19.82
2017-04-28T16:31:55.518Z,21.36
2017-04-28T16:34:24.610Z,19.98
2017-04-28T16:36:53.848Z,21.86
2017-04-28T16:39:23.680Z,23.38
2017-04-28T16:41:53.124Z,23.62
2017-04-28T16:44:22.203Z,29.64
2017-04-28T16:46:51.320Z,26.60
2017-04-28T16:49:20.404Z,24.46
2017-04-28T16:51:49.589Z,23.94
2017-04-28T16:54:18.894Z,26.90
2017-04-28T16:56:47.971Z,21.08
2017-04-28T16:59:17.048Z,23.02
2017-04-28T17:01:46.139Z,25.90
2017-04-28T17:04:15.222Z,25.14
2017-04-28T17:06:44.331Z,25.28
2017-04-28T17:09:13.415Z,23.60
2017-04-28T17:11:42.498Z,23.14
2017-04-28T17:14:11.884Z,26.56
2017-04-28T17:16:40.967Z,25.90
2017-04-28T17:19:10.045Z,29.88
2017-04-28T17:21:39.135Z,25.34
2017-04-28T17:24:08.250Z,26.52
2017-04-28T17:26:37.748Z,28.82
2017-04-28T17:29:06.840Z,26.72
2017-04-28T17:31:35.920Z,22.28
2017-04-28T17:34:05.432Z,23.74
2017-04-28T17:36:35.256Z,22.20
2017-04-28T17:39:04.502Z,20.22
2017-04-28T17:41:33.567Z,22.46
2017-04-28T17:44:02.637Z,21.62
2017-04-28T17:46:31.761Z,22.64
2017-04-28T17:49:00.827Z,19.48
2017-04-28T17:51:30.103Z,20.06
2017-04-28T17:53:59.204Z,17.72
2017-04-28T17:56:29.015Z,17.36
2017-04-28T17:58:58.127Z,20.48
2017-04-28T18:01:27.920Z,20.04
2017-04-28T18:03:57.183Z,19.14
2017-04-28T18:06:26.256Z,19.84
2017-04-28T18:08:55.332Z,19.94
2017-04-28T18:11:24.431Z,19.06
2017-04-28T18:13:53.517Z,21.54
2017-04-28T18:16:22.847Z,17.94
2017-04-28T18:18:51.935Z,19.60
2017-04-28T18:21:21.055Z,18.98
2017-04-28T18:23:50.166Z,19.64
2017-04-28T18:26:19.994Z,22.76
2017-04-28T18:28:49.955Z,21.22
2017-04-28T18:31:19.011Z,20.32
2017-04-28T18:33:48.097Z,21.22
2017-04-28T18:36:17.999Z,22.74
2017-04-28T18:38:47.809Z,24.18
2017-04-28T18:41:16.959Z,27.16
2017-04-28T18:43:46.092Z,23.82
2017-04-28T18:46:15.536Z,24.70
2017-04-28T18:48:44.608Z,24.32
2017-04-28T18:51:13.716Z,24.40
2017-04-28T18:53:43.531Z,23.68
2017-04-28T18:56:12.608Z,25.66
2017-04-28T18:58:41.771Z,23.64
2017-04-28T19:01:10.824Z,21.62
2017-04-28T19:03:39.899Z,20.76
2017-04-28T19:06:08.995Z,20.70
2017-04-28T19:08:38.066Z,23.66
2017-04-28T19:11:08.028Z,22.38
2017-04-28T19:13:37.164Z,23.94
2017-04-28T19:16:06.298Z,21.90
2017-04-28T19:18:35.387Z,24.52
2017-04-28T19:21:04.631Z,25.86
2017-04-28T19:23:34.109Z,23.56
2017-04-28T19:26:03.345Z,27.12
2017-04-28T19:28:32.424Z,27.00
2017-04-28T19:31:01.532Z,27.00
2017-04-28T19:33:30.596Z,26.10
2017-04-28T19:36:00.816Z,26.08
2017-04-28T19:38:29.944Z,27.62
2017-04-28T19:40:59.006Z,28.90
2017-04-28T19:43:28.114Z,25.68
2017-04-28T19:45:57.267Z,26.10
2017-04-28T19:48:26.526Z,25.40
2017-04-28T19:50:56.551Z,24.86
2017-04-28T19:53:25.672Z,25.04
2017-04-28T19:55:54.835Z,23.64
2017-04-28T19:58:23.906Z,27.08
2017-04-28T20:00:53.006Z,23.38
2017-04-28T20:03:22.067Z,25.64
2017-04-28T20:05:51.587Z,24.26
2017-04-28T20:08:21.637Z,25.56
2017-04-28T20:10:50.842Z,22.12
2017-04-28T20:13:19.943Z,24.18
2017-04-28T20:15:49.095Z,23.18
2017-04-28T20:18:18.392Z,23.26
2017-04-28T20:20:47.570Z,23.30
2017-04-28T20:23:16.658Z,22.28
2017-04-28T20:25:46.599Z,22.66
2017-04-28T20:28:15.659Z,21.60
2017-04-28T20:30:45.502Z,22.86
2017-04-28T20:33:14.555Z,21.92
2017-04-28T20:35:43.771Z,23.06
2017-04-28T20:38:13.583Z,23.80
2017-04-28T20:40:43.420Z,22.20
2017-04-28T20:43:12.619Z,22.84
2017-04-28T20:45:41.821Z,21.26
2017-04-28T20:48:11.051Z,22.74
2017-04-28T20:50:40.139Z,22.84
2017-04-28T20:53:09.230Z,25.50
2017-04-28T20:55:38.351Z,23.12
2017-04-28T20:58:07.426Z,23.86
2017-04-28T21:00:36.505Z,25.42
2017-04-28T21:03:05.583Z,24.12
2017-04-28T21:05:35.196Z,25.18
2017-04-28T21:08:04.252Z,21.90
2017-04-28T21:10:33.687Z,23.86
2017-04-28T21:13:02.779Z,26.10
2017-04-28T21:15:31.892Z,24.10
2017-04-28T21:18:01.111Z,25.16
2017-04-28T21:20:30.164Z,26.70
2017-04-28T21:22:59.222Z,24.42
2017-04-28T21:25:28.312Z,25.52
2017-04-28T21:27:57.383Z,24.50
2017-04-28T21:30:26.640Z,24.08
2017-04-28T21:32:55.744Z,24.58
2017-04-28T21:35:24.796Z,27.96
2017-04-28T21:37:53.880Z,25.26
2017-04-28T21:40:22.940Z,27.12
2017-04-28T21:42:52.221Z,24.58
2017-04-28T21:45:22.119Z,24.20
2017-04-28T21:47:51.231Z,27.88
2017-04-28T21:50:20.519Z,24.24
2017-04-28T21:52:50.322Z,26.26
2017-04-28T21:55:18.634Z,28.82
2017-04-28T21:57:47.848Z,28.38
2017-04-28T22:00:16.927Z,25.40
2017-04-28T22:02:46.000Z,27.84
2017-04-28T22:05:15.214Z,29.58
2017-04-28T22:07:44.292Z,27.16
2017-04-28T22:10:13.365Z,28.44
2017-04-28T22:12:43.208Z,29.28
2017-04-28T22:15:32.206Z,30.50
2017-04-28T22:18:01.322Z,31.42
2017-04-28T22:20:30.404Z,30.08
2017-04-28T22:23:00.605Z,31.56
2017-04-28T22:25:29.664Z,30.84
2017-04-28T22:27:58.762Z,29.54
2017-04-28T22:30:27.841Z,35.86
2017-04-28T22:32:56.903Z,32.24
2017-04-28T22:35:26.151Z,30.00
2017-04-28T22:37:55.243Z,29.72
2017-04-28T22:40:24.298Z,29.28
2017-04-28T22:42:53.399Z,29.88
2017-04-28T22:45:23.209Z,33.38
2017-04-28T22:47:52.419Z,31.92
2017-04-28T22:50:22.228Z,31.20
2017-04-28T22:52:51.319Z,29.74
2017-04-28T22:55:21.168Z,31.66
2017-04-28T22:57:50.238Z,34.04
2017-04-28T23:00:19.617Z,34.32
2017-04-28T23:02:48.666Z,32.78
2017-04-28T23:05:17.808Z,32.56
2017-04-28T23:07:47.643Z,28.64
2017-04-28T23:10:16.717Z,32.12
2017-04-28T23:12:46.759Z,30.94
2017-04-28T23:15:15.825Z,33.58
2017-04-28T23:17:44.870Z,33.24
2017-04-28T23:20:13.983Z,33.24
2017-04-28T23:22:43.046Z,35.28
2017-04-28T23:25:12.135Z,34.80
2017-04-28T23:27:41.923Z,37.00
2017-04-28T23:30:12.057Z,37.82
2017-04-28T23:32:41.848Z,33.72
2017-04-28T23:35:10.886Z,37.78
2017-04-28T23:37:39.971Z,38.22
2017-04-28T23:40:09.057Z,38.46
2017-04-28T23:42:38.788Z,36.22
2017-04-28T23:45:07.855Z,32.52
2017-04-28T23:47:37.675Z,30.00
2017-04-28T23:50:06.770Z,32.74
2017-04-28T23:52:35.819Z,31.06
2017-04-28T23:55:05.064Z,31.34
2017-04-28T23:57:34.123Z,30.54
